Trenary, Michigan
Current Conditions -  °F | °C
As of 3:38 AM on Friday 31 Oct 2014 (Local Time) from KSAW Reporting Station
Overcast Overcast  
Wind Chill: 18°   Ceiling: 600
Heat Index: 32°   Visibility: NA
Dew Point: 30°   Wind: 29mph
Humidity: 93%   Direction: 350°N
Pressure: 30.07"   Gusts: 39mph
Location:  46.2°N, 86.97°W
Report Text: KSAW 310738Z AUTO 35025G34KT OVC006 00/M01 A3007 RMK AO2
Loading
Personal Weather Stations






























Interactive Weather Map
Tropical Storm Tracking
New forecast layout! Learn more

10-Day Weather Forecast

Advertisements
Track Severe Weather on mobile